Terminal Aerodrome Forecast
Issued by NWS

Home | Current Version | Previous Version | Text Only | Print | Product List | Glossary On
Versions: 1 2 3 4 5 6 7 8 9 10 11 12 13 14 15 16
230
FTUS41 KBTV 260916 AAA
TAFSLK
TAF AMD
KSLK 260916Z 2609/2706 24004KT 5SM BR OVC006
      TEMPO 2609/2613 2SM -RA BR OVC004
     FM261300 25010KT 5SM -RA BR OVC010
     FM262200 25008KT P6SM VCSH OVC015
     FM270200 24005KT P6SM BKN020=

USA.gov is the U.S. government's official web portal to all federal, state and local government web resources and services.